createdAt,value
2019-03-11T00:02:52.680Z,100350.23
2019-03-11T00:11:01.727Z,100352.41
2019-03-11T00:13:30.176Z,100350.69
2019-03-11T00:16:17.886Z,100355.84
2019-03-11T00:18:46.349Z,100349.36
2019-03-11T00:21:14.864Z,100352.90
2019-03-11T00:23:43.348Z,100351.47
2019-03-11T00:26:11.793Z,100345.95
2019-03-11T00:28:40.247Z,100346.17
2019-03-11T00:31:08.761Z,100342.95
2019-03-11T00:33:37.215Z,100343.22
2019-03-11T00:36:05.677Z,100337.92
2019-03-11T00:38:34.172Z,100328.72
2019-03-11T00:41:21.947Z,100330.84
2019-03-11T00:46:24.394Z,100321.69
2019-03-11T00:48:52.834Z,100325.25
2019-03-11T00:53:55.614Z,100320.58
2019-03-11T00:56:24.065Z,100327.17
2019-03-11T00:58:52.582Z,100329.03
2019-03-11T01:04:08.612Z,100316.81
2019-03-11T01:06:37.060Z,100319.45
2019-03-11T01:09:45.465Z,100321.09
2019-03-11T01:12:13.994Z,100316.35
2019-03-11T01:14:42.446Z,100313.72
2019-03-11T01:20:03.893Z,100299.55
2019-03-11T01:25:46.733Z,100286.91
2019-03-11T01:28:15.228Z,100284.42
2019-03-11T01:30:43.707Z,100279.11
2019-03-11T01:33:12.161Z,100269.27
2019-03-11T01:38:34.487Z,100268.00
2019-03-11T01:41:02.941Z,100259.11
2019-03-11T01:43:31.425Z,100249.13
2019-03-11T01:45:59.875Z,100250.20
2019-03-11T01:48:28.325Z,100236.64
2019-03-11T01:50:56.813Z,100220.31
2019-03-11T01:53:25.286Z,100222.34
2019-03-11T01:56:13.022Z,100213.22
2019-03-11T01:58:41.473Z,100210.03
2019-03-11T02:01:09.927Z,100218.15
2019-03-11T02:03:38.419Z,100219.16
2019-03-11T02:06:06.936Z,100211.78
2019-03-11T02:08:35.391Z,100204.56
2019-03-11T02:11:03.878Z,100191.83
2019-03-11T02:13:32.332Z,100188.82
2019-03-11T02:16:00.799Z,100196.44
2019-03-11T02:18:48.499Z,100185.60
2019-03-11T02:21:16.955Z,100191.78
2019-03-11T02:23:45.410Z,100193.13
2019-03-11T02:26:13.900Z,100186.55
2019-03-11T02:28:42.346Z,100182.73
2019-03-11T02:31:10.798Z,100176.09
2019-03-11T02:33:39.279Z,100174.56
2019-03-11T02:36:07.731Z,100168.96
2019-03-11T02:38:36.187Z,100162.41
2019-03-11T02:41:04.722Z,100156.68
2019-03-11T02:43:52.488Z,100148.38
2019-03-11T02:48:55.334Z,100150.19
2019-03-11T02:51:23.798Z,100149.05
2019-03-11T02:54:11.465Z,100145.46
2019-03-11T02:56:39.916Z,100144.17
2019-03-11T02:59:08.366Z,100150.05
2019-03-11T03:01:56.056Z,100139.48
2019-03-11T03:04:43.647Z,100146.23
2019-03-11T03:07:12.134Z,100141.66
2019-03-11T03:09:40.599Z,100142.10
2019-03-11T03:12:09.046Z,100137.30
2019-03-11T03:14:37.582Z,100142.40
2019-03-11T03:17:25.265Z,100129.45
2019-03-11T03:22:27.669Z,100117.09
2019-03-11T03:24:56.141Z,100117.41
2019-03-11T03:27:24.593Z,100102.36
2019-03-11T03:29:53.042Z,100111.44
2019-03-11T03:34:55.506Z,100118.25
2019-03-11T03:37:23.989Z,100106.66
2019-03-11T03:39:52.437Z,100109.14
2019-03-11T03:43:01.068Z,100122.95
2019-03-11T03:46:18.899Z,100128.11
2019-03-11T03:51:15.110Z,100183.52
2019-03-11T03:53:43.561Z,100185.67
2019-03-11T03:56:12.049Z,100173.47
2019-03-11T03:58:40.499Z,100159.22
2019-03-11T04:01:28.171Z,100148.67
2019-03-11T04:04:15.814Z,100160.44
2019-03-11T04:09:37.570Z,100174.72
2019-03-11T04:12:06.062Z,100185.70
2019-03-11T04:14:34.519Z,100192.30
2019-03-11T04:17:22.314Z,100194.42
2019-03-11T04:23:39.002Z,100171.61
2019-03-11T04:26:26.641Z,100172.13
2019-03-11T04:28:55.263Z,100179.17
2019-03-11T04:31:23.849Z,100172.25
2019-03-11T04:34:32.263Z,100169.63
2019-03-11T04:37:00.711Z,100173.14
2019-03-11T04:39:48.524Z,100177.53
2019-03-11T04:42:17.003Z,100179.27
2019-03-11T04:44:45.461Z,100180.61
2019-03-11T04:47:13.970Z,100186.73
2019-03-11T04:49:42.418Z,100193.72
2019-03-11T04:52:10.872Z,100197.23
2019-03-11T04:54:39.370Z,100199.01
2019-03-11T04:57:27.123Z,100203.41
2019-03-11T04:59:55.614Z,100211.85
2019-03-11T05:02:43.251Z,100215.38
2019-03-11T05:05:11.882Z,100206.45
2019-03-11T05:07:59.655Z,100217.97
2019-03-11T05:10:28.176Z,100221.04
2019-03-11T05:12:56.626Z,100216.28
2019-03-11T05:15:25.144Z,100221.98
2019-03-11T05:17:53.650Z,100232.54
2019-03-11T05:26:04.227Z,100246.84
2019-03-11T05:28:32.679Z,100244.27
2019-03-11T05:31:01.157Z,100247.70
2019-03-11T05:33:48.799Z,100252.52
2019-03-11T05:36:17.281Z,100247.27
2019-03-11T05:38:45.733Z,100240.59
2019-03-11T05:41:14.176Z,100252.47
2019-03-11T05:46:35.946Z,100254.69
2019-03-11T05:49:04.501Z,100252.91
2019-03-11T05:51:52.201Z,100245.02
2019-03-11T05:54:20.709Z,100235.80
2019-03-11T05:57:08.404Z,100226.11
2019-03-11T06:02:10.563Z,100232.30
2019-03-11T06:04:38.997Z,100219.02
2019-03-11T06:09:41.498Z,100211.20
2019-03-11T06:12:29.239Z,100217.82
2019-03-11T06:14:57.708Z,100223.06
2019-03-11T06:17:45.504Z,100231.94
2019-03-11T06:20:52.534Z,100254.28
2019-03-11T06:23:40.409Z,100252.52
2019-03-11T06:26:08.859Z,100257.83
2019-03-11T06:28:56.759Z,100260.88
2019-03-11T06:31:44.399Z,100249.48
2019-03-11T06:34:12.958Z,100235.80
2019-03-11T06:36:41.409Z,100240.19
2019-03-11T06:39:09.938Z,100238.88
2019-03-11T06:44:12.102Z,100240.69
2019-03-11T06:46:40.586Z,100243.70
2019-03-11T06:49:09.033Z,100244.15
2019-03-11T06:51:56.751Z,100248.91
2019-03-11T06:54:25.166Z,100253.31
2019-03-11T06:56:53.615Z,100261.98
2019-03-11T06:59:22.122Z,100260.63
2019-03-11T07:01:50.576Z,100271.66
2019-03-11T07:04:19.099Z,100279.84
2019-03-11T07:06:47.590Z,100274.24
2019-03-11T07:09:16.153Z,100282.09
2019-03-11T07:11:44.589Z,100286.31
2019-03-11T07:14:13.076Z,100299.13
2019-03-11T07:16:41.527Z,100291.19
2019-03-11T07:19:09.973Z,100294.69
2019-03-11T07:21:38.468Z,100300.51
2019-03-11T07:24:07.000Z,100308.80
2019-03-11T07:26:35.437Z,100300.48
2019-03-11T07:29:03.923Z,100304.83
2019-03-11T07:31:32.370Z,100302.98
2019-03-11T07:34:00.818Z,100306.09
2019-03-11T07:36:48.565Z,100312.57
2019-03-11T07:39:17.028Z,100306.87
2019-03-11T07:42:05.097Z,100313.03
2019-03-11T07:44:52.698Z,100320.70
2019-03-11T07:49:55.631Z,100324.23
2019-03-11T07:55:17.866Z,100325.09
2019-03-11T07:57:46.372Z,100322.64
2019-03-11T08:00:34.231Z,100324.41
2019-03-11T08:03:02.710Z,100333.57
2019-03-11T08:05:31.163Z,100336.88
2019-03-11T08:07:59.680Z,100339.11
2019-03-11T08:13:02.199Z,100340.56
2019-03-11T08:15:30.651Z,100344.83
2019-03-11T08:17:59.130Z,100353.92
2019-03-11T08:20:27.585Z,100351.94
2019-03-11T08:22:56.035Z,100350.95
2019-03-11T08:25:44.021Z,100346.27
2019-03-11T08:28:12.472Z,100344.50
2019-03-11T08:33:33.794Z,100339.34
2019-03-11T08:36:21.549Z,100339.12
2019-03-11T08:38:49.993Z,100351.88
2019-03-11T08:41:18.450Z,100352.13
2019-03-11T08:46:21.401Z,100356.55
2019-03-11T08:48:49.891Z,100353.93
2019-03-11T08:51:18.347Z,100368.12
2019-03-11T08:53:46.804Z,100370.09
2019-03-11T08:58:48.932Z,100358.77
2019-03-11T09:04:10.489Z,100350.11
2019-03-11T09:06:38.938Z,100361.84
2019-03-11T09:09:47.417Z,100364.95
2019-03-11T09:12:15.864Z,100363.86
2019-03-11T09:14:44.311Z,100371.16
2019-03-11T09:17:32.377Z,100371.70
2019-03-11T09:20:00.830Z,100388.74
2019-03-11T09:22:29.280Z,100382.56
2019-03-11T09:27:51.319Z,100390.63
2019-03-11T09:30:40.665Z,100386.48
2019-03-11T09:33:09.112Z,100388.30
2019-03-11T09:35:37.581Z,100398.41
2019-03-11T09:38:25.462Z,100397.00
2019-03-11T09:41:13.158Z,100390.30
2019-03-11T09:43:41.649Z,100391.27
2019-03-11T09:46:29.419Z,100383.79
2019-03-11T09:49:17.119Z,100397.50
2019-03-11T09:51:45.593Z,100395.05
2019-03-11T09:54:14.041Z,100402.23
2019-03-11T09:59:16.574Z,100405.87
2019-03-11T10:01:45.054Z,100408.10
2019-03-11T10:04:13.501Z,100407.61
2019-03-11T10:06:41.950Z,100420.95
2019-03-11T10:09:29.699Z,100416.58
2019-03-11T10:11:58.150Z,100418.28
2019-03-11T10:14:26.604Z,100420.92
2019-03-11T10:19:28.989Z,100417.05
2019-03-11T10:21:57.443Z,100414.77
2019-03-11T10:24:25.998Z,100406.80
2019-03-11T10:26:54.445Z,100419.65
2019-03-11T10:29:22.897Z,100416.59
2019-03-11T10:34:44.467Z,100432.90
2019-03-11T10:37:32.144Z,100441.03
2019-03-11T10:40:00.594Z,100443.38
2019-03-11T10:42:29.051Z,100447.93
2019-03-11T10:44:57.545Z,100454.69
2019-03-11T10:47:45.310Z,100460.87
2019-03-11T10:50:53.874Z,100461.06
2019-03-11T10:53:23.998Z,100475.81
2019-03-11T10:56:11.697Z,100473.24
2019-03-11T10:58:40.152Z,100474.86
2019-03-11T11:04:01.679Z,100483.64
2019-03-11T11:06:30.161Z,100492.61
2019-03-11T11:09:17.805Z,100502.52
2019-03-11T11:14:19.926Z,100510.02
2019-03-11T11:16:48.372Z,100515.76
2019-03-11T11:21:50.590Z,100522.67
2019-03-11T11:24:19.037Z,100528.88
2019-03-11T11:27:06.745Z,100534.73
2019-03-11T11:29:54.384Z,100523.65
2019-03-11T11:35:16.122Z,100547.78
2019-03-11T11:40:38.037Z,100545.63
2019-03-11T11:43:46.778Z,100555.04
2019-03-11T11:46:15.213Z,100536.34
2019-03-11T11:48:43.663Z,100539.23
2019-03-11T11:51:31.424Z,100534.75
2019-03-11T11:54:19.000Z,100543.53
2019-03-11T11:56:47.482Z,100544.27
2019-03-11T11:59:15.933Z,100547.40
2019-03-11T12:01:44.387Z,100550.34
2019-03-11T12:04:32.194Z,100558.09
2019-03-11T12:07:00.642Z,100544.44
2019-03-11T12:09:29.094Z,100554.48
2019-03-11T12:12:16.712Z,100549.92
2019-03-11T12:14:45.162Z,100546.65
2019-03-11T12:17:32.845Z,100559.24
2019-03-11T12:20:20.542Z,100562.99
2019-03-11T12:25:42.326Z,100567.93
2019-03-11T12:31:04.102Z,100552.11
2019-03-11T12:33:51.951Z,100561.67
2019-03-11T12:39:28.499Z,100572.97
2019-03-11T12:41:56.949Z,100568.48
2019-03-11T12:44:25.418Z,100570.59
2019-03-11T12:46:53.898Z,100565.32
2019-03-11T12:49:22.348Z,100569.64
2019-03-11T12:51:50.799Z,100560.78
2019-03-11T12:56:53.314Z,100551.01
2019-03-11T12:59:21.788Z,100563.00
2019-03-11T13:02:09.698Z,100555.41
2019-03-11T13:04:57.461Z,100554.53
2019-03-11T13:07:25.938Z,100577.27
2019-03-11T13:09:54.391Z,100586.91
2019-03-11T13:12:22.841Z,100602.94
2019-03-11T13:15:10.528Z,100606.97
2019-03-11T13:17:58.299Z,100613.01
2019-03-11T13:23:20.070Z,100607.72
2019-03-11T13:26:07.883Z,100607.36
2019-03-11T13:28:55.536Z,100610.56
2019-03-11T13:31:43.349Z,100608.34
2019-03-11T13:34:11.803Z,100613.29
2019-03-11T13:36:59.550Z,100604.44
2019-03-11T13:39:28.003Z,100600.86
2019-03-11T13:42:36.428Z,100600.18
2019-03-11T13:45:44.815Z,100605.53
2019-03-11T13:48:13.407Z,100607.50
2019-03-11T13:50:41.928Z,100615.16
2019-03-11T13:53:29.983Z,100618.33
2019-03-11T13:57:05.801Z,100619.38
2019-03-11T13:59:34.334Z,100624.80
2019-03-11T14:02:02.790Z,100614.59
2019-03-11T14:04:31.249Z,100625.25
2019-03-11T14:09:33.299Z,100628.17
2019-03-11T14:12:01.741Z,100628.45
2019-03-11T14:14:30.226Z,100636.19
2019-03-11T14:16:58.674Z,100635.23
2019-03-11T14:19:27.125Z,100630.34
2019-03-11T14:21:55.636Z,100637.19
2019-03-11T14:24:43.275Z,100638.88
2019-03-11T14:29:45.295Z,100664.59
2019-03-11T14:32:32.961Z,100662.14
2019-03-11T14:35:01.409Z,100665.62
2019-03-11T14:37:49.228Z,100669.83
2019-03-11T14:40:57.591Z,100666.50
2019-03-11T14:43:26.077Z,100671.96
2019-03-11T14:46:13.833Z,100662.00
2019-03-11T14:48:42.315Z,100666.81
2019-03-11T14:51:30.025Z,100669.95
2019-03-11T14:53:58.526Z,100666.88
2019-03-11T14:56:26.980Z,100663.38
2019-03-11T14:58:55.431Z,100661.30
2019-03-11T15:01:23.928Z,100657.19
2019-03-11T15:04:32.287Z,100663.47
2019-03-11T15:07:00.801Z,100673.06
2019-03-11T15:09:29.252Z,100681.19
2019-03-11T15:12:17.001Z,100684.52
2019-03-11T15:14:45.449Z,100676.84
2019-03-11T15:17:33.123Z,100674.92
2019-03-11T15:20:20.831Z,100679.60
2019-03-11T15:23:29.220Z,100668.72
2019-03-11T15:25:57.667Z,100671.09
2019-03-11T15:28:26.122Z,100671.80
2019-03-11T15:30:54.683Z,100670.68
2019-03-11T15:33:23.140Z,100676.64
2019-03-11T15:35:51.660Z,100676.52
2019-03-11T15:38:39.632Z,100677.87
2019-03-11T15:41:08.097Z,100690.02
2019-03-11T15:43:36.617Z,100690.81
2019-03-11T15:46:05.248Z,100684.17
2019-03-11T15:48:33.692Z,100704.87
2019-03-11T15:51:02.145Z,100697.58
2019-03-11T15:53:30.629Z,100703.17
2019-03-11T15:55:59.147Z,100706.94
2019-03-11T15:58:27.621Z,100692.02
2019-03-11T16:00:56.086Z,100702.30
2019-03-11T16:03:24.695Z,100700.55
2019-03-11T16:05:53.540Z,100714.92
2019-03-11T16:08:22.435Z,100718.41
2019-03-11T16:10:50.957Z,100709.93
2019-03-11T16:13:19.489Z,100716.50
2019-03-11T16:15:48.524Z,100723.64
2019-03-11T16:18:16.990Z,100730.73
2019-03-11T16:20:45.894Z,100736.95
2019-03-11T16:23:14.388Z,100736.84
2019-03-11T16:25:42.832Z,100734.30
2019-03-11T16:28:11.697Z,100735.09
2019-03-11T16:30:40.601Z,100732.59
2019-03-11T16:33:09.601Z,100733.35
2019-03-11T16:35:38.054Z,100736.89
2019-03-11T16:38:07.171Z,100734.14
2019-03-11T16:40:35.909Z,100736.56
2019-03-11T16:43:04.879Z,100743.34
2019-03-11T16:45:33.483Z,100740.66
2019-03-11T16:48:02.009Z,100741.06
2019-03-11T16:50:30.607Z,100757.78
2019-03-11T16:52:59.507Z,100757.24
2019-03-11T16:55:47.071Z,100762.66
2019-03-11T16:58:34.835Z,100773.29
2019-03-11T17:01:22.475Z,100778.27
2019-03-11T17:07:04.432Z,100793.48
2019-03-11T17:09:32.882Z,100801.94
2019-03-11T17:12:01.333Z,100813.36
2019-03-11T17:14:49.384Z,100814.27
2019-03-11T17:17:37.075Z,100809.29
2019-03-11T17:20:45.496Z,100808.34
2019-03-11T17:23:13.942Z,100816.45
2019-03-11T17:25:42.414Z,100817.17
2019-03-11T17:28:30.098Z,100820.01
2019-03-11T17:30:58.621Z,100817.02
2019-03-11T17:33:46.293Z,100818.88
2019-03-11T17:36:14.737Z,100823.63
2019-03-11T17:39:23.137Z,100832.22
2019-03-11T17:41:51.586Z,100837.37
2019-03-11T17:44:20.034Z,100848.42
2019-03-11T17:49:42.139Z,100852.05
2019-03-11T17:55:44.927Z,100860.03
2019-03-11T17:58:13.379Z,100876.31
2019-03-11T18:01:01.010Z,100882.05
2019-03-11T18:06:17.077Z,100884.28
2019-03-11T18:09:04.747Z,100887.33
2019-03-11T18:14:26.189Z,100890.42
2019-03-11T18:16:54.697Z,100897.47
2019-03-11T18:19:23.150Z,100887.42
2019-03-11T18:21:51.669Z,100892.27
2019-03-11T18:24:20.223Z,100906.75
2019-03-11T18:27:08.022Z,100912.06
2019-03-11T18:29:36.546Z,100917.35
2019-03-11T18:35:34.197Z,100934.52
2019-03-11T18:41:09.322Z,100924.80
2019-03-11T18:43:42.779Z,100929.20
2019-03-11T18:46:08.010Z,100932.74
2019-03-11T18:48:55.696Z,100931.42
2019-03-11T18:51:43.496Z,100932.75
2019-03-11T18:54:31.133Z,100941.55
2019-03-11T18:56:59.599Z,100935.41
2019-03-11T18:59:28.060Z,100938.47
2019-03-11T19:01:56.527Z,100936.28
2019-03-11T19:04:24.982Z,100938.47
2019-03-11T19:06:53.430Z,100947.27
2019-03-11T19:09:21.934Z,100964.42
2019-03-11T19:14:39.603Z,100959.14
2019-03-11T19:17:48.006Z,100963.98
2019-03-11T19:20:56.417Z,100962.66
2019-03-11T19:23:43.975Z,100962.67
2019-03-11T19:29:06.969Z,100952.12
2019-03-11T19:31:35.415Z,100956.51
2019-03-11T19:37:17.460Z,100952.12
2019-03-11T19:40:05.350Z,100960.03
2019-03-11T19:42:53.300Z,100962.67
2019-03-11T19:45:41.094Z,100961.34
2019-03-11T19:48:28.930Z,100967.50
2019-03-11T19:51:16.543Z,100969.64
2019-03-11T19:53:45.045Z,100974.55
2019-03-11T19:56:13.518Z,100982.89
2019-03-11T19:58:41.972Z,100977.13
2019-03-11T20:01:10.478Z,100979.75
2019-03-11T20:03:38.984Z,100987.30
2019-03-11T20:06:07.501Z,100986.79
2019-03-11T20:08:36.005Z,100997.84
2019-03-11T20:11:04.512Z,101013.67
2019-03-11T20:13:33.052Z,100993.83
2019-03-11T20:18:35.747Z,101013.67
2019-03-11T20:23:58.740Z,101004.00
2019-03-11T20:26:46.421Z,101012.38
2019-03-11T20:29:34.348Z,101019.83
2019-03-11T20:32:22.197Z,101026.80
2019-03-11T20:35:10.053Z,101031.16
2019-03-11T20:37:38.593Z,101037.80
2019-03-11T20:40:47.059Z,101050.93
2019-03-11T20:43:15.481Z,101063.25
2019-03-11T20:48:50.768Z,101056.61
2019-03-11T20:51:19.189Z,101062.80
2019-03-11T20:53:47.731Z,101064.61
2019-03-11T20:58:50.876Z,101072.16
2019-03-11T21:01:20.946Z,101082.19
2019-03-11T21:03:49.393Z,101084.34
2019-03-11T21:09:45.217Z,101081.71
2019-03-11T21:12:13.695Z,101078.14
2019-03-11T21:14:42.117Z,101080.44
2019-03-11T21:17:10.666Z,101095.71
2019-03-11T21:19:39.188Z,101098.35
2019-03-11T21:22:07.809Z,101104.92
2019-03-11T21:24:38.060Z,101099.17
2019-03-11T21:27:06.541Z,101096.59
2019-03-11T21:29:38.425Z,101096.14
2019-03-11T21:32:05.354Z,101102.30
2019-03-11T21:34:35.499Z,101099.65
2019-03-11T21:37:16.073Z,101110.59
2019-03-11T21:40:03.814Z,101107.50
2019-03-11T21:42:51.573Z,101110.15
2019-03-11T21:45:39.262Z,101108.00
2019-03-11T21:48:27.043Z,101106.62
2019-03-11T21:51:14.718Z,101105.25
2019-03-11T21:56:36.789Z,101110.20
2019-03-11T21:59:24.622Z,101102.73
2019-03-11T22:01:54.822Z,101109.41
2019-03-11T22:04:23.259Z,101101.41
2019-03-11T22:06:51.764Z,101106.68
2019-03-11T22:09:20.227Z,101104.88
2019-03-11T22:11:48.686Z,101087.34
2019-03-11T22:14:17.172Z,101107.58
2019-03-11T22:16:45.616Z,101096.58
2019-03-11T22:19:14.065Z,101097.85
2019-03-11T22:21:42.548Z,101089.48
2019-03-11T22:24:11.004Z,101092.18
2019-03-11T22:26:39.450Z,101108.07
2019-03-11T22:29:07.947Z,101098.36
2019-03-11T22:31:36.381Z,101101.55
2019-03-11T22:37:11.490Z,101098.35
2019-03-11T22:39:39.942Z,101093.50
2019-03-11T22:42:08.399Z,101099.67
2019-03-11T22:44:36.873Z,101097.86
2019-03-11T22:47:05.321Z,101090.45
2019-03-11T22:49:33.767Z,101095.78
2019-03-11T22:52:02.256Z,101098.85
2019-03-11T22:54:30.710Z,101095.77
2019-03-11T22:56:59.162Z,101093.90
2019-03-11T22:59:27.661Z,101094.33
2019-03-11T23:01:56.200Z,101084.95
2019-03-11T23:04:44.041Z,101090.29
2019-03-11T23:07:31.810Z,101096.38
2019-03-11T23:10:12.216Z,101109.52
2019-03-11T23:12:49.856Z,101111.63
2019-03-11T23:15:37.678Z,101121.72
2019-03-11T23:18:06.194Z,101135.95
2019-03-11T23:20:34.739Z,101142.98
2019-03-11T23:23:03.209Z,101152.20
2019-03-11T23:25:31.670Z,101156.53
2019-03-11T23:28:00.203Z,101157.86
2019-03-11T23:30:28.735Z,101174.19
2019-03-11T23:32:57.214Z,101179.88
2019-03-11T23:35:25.749Z,101188.00
2019-03-11T23:37:54.471Z,101191.07
2019-03-11T23:40:22.927Z,101195.11
2019-03-11T23:42:51.401Z,101199.86
2019-03-11T23:45:19.886Z,101202.06
2019-03-11T23:47:48.333Z,101197.66
2019-03-11T23:50:19.499Z,101201.11
2019-03-11T23:52:47.147Z,101193.20
2019-03-11T23:55:15.603Z,101180.42
2019-03-11T23:57:44.053Z,101181.64
